Hendersonville, NC (28792)

7:18 AM EDT on October 01, 2016 (GMT -0400)
Little Bearwallow MOUNTAIN | | Change Station

Elev 2820 ft 35.44 °N, 82.35 °W | Updated 43 seconds ago

Clear
Clear
50.1 °F
Feels Like 50.1 °F
N
0.0
Wind Variable Wind from ESE
Gusts 0.0 mph

Today
High -- | Low -- °F
--% Chance of Precip.
Yesterday
High -- | Low -- °F
Precip. -- in
Pressure 30.11 in
Visibility 5.0 miles
Clouds Clear
Dew Point --
Humidity 86%
Rainfall 0.00 in
Snow Depth Not available.
7:25 AM 7:12 PM
New Moon, 0% visible
SPECI KAVL 011103Z 00000KT 5SM BR CLR 07/06 A3011
Pressure 30.11 in
Visibility 5.0 miles
Clouds Clear
Dew Point --
Humidity 86%
Rainfall 0.00 in
Snow Depth Not available.
7:25 AM 7:12 PM
New Moon, 0% visible
SPECI KAVL 011103Z 00000KT 5SM BR CLR 07/06 A3011

10-Day Weather Forecast

Almanac

Astronomy

Oct. 01, 2016 Rise Set
Actual Time
Civil Twilight
Nautical Twilight
Astronomical Twilight
Moon
Length of Visible Light
Length of Day
Tomorrow will be .
, % of the Moon is Illuminated

Today's Extremes

State Highs State Lows

Community

WunderPhotos

Upload Photos

1,942,905 photos uploaded!

WunderBlog® & News

Nearby

Air Quality

  Air Quality AQ Index Pollutant
Not available.

Snow Depth

Station Depth Elevation

Earthquake Activity

City Distance Mag. Time & Date
Minimum magnitude displayed is 2.5.

Coastal Water Temperatures

Place Temperature

Stations

Nearby Weather Stations

Station Location Temp. Windchill Dew Point Humidity Wind Precip. Elev Updated Type
                   

Watches & Warnings

There are currently no watches in effect.